RJCA(METAR)
04/24 09:00
METAR RJCA 240000Z VRB02KT 9999 FEW050 BKN120 12/02 Q1011 RMK 1CU050
5AC120 A2987=
戻る
トップページへ戻る
IMOC Co,.Ltd.